createdAt,value
2022-09-02T00:00:03.081Z,969.17
2022-09-02T00:01:03.029Z,969.17
2022-09-02T00:02:03.114Z,969.19
2022-09-02T00:03:03.042Z,969.16
2022-09-02T00:04:02.874Z,969.19
2022-09-02T00:05:02.839Z,969.14
2022-09-02T00:06:02.786Z,969.18
2022-09-02T00:07:02.739Z,969.19
2022-09-02T00:08:02.670Z,969.15
2022-09-02T00:09:02.619Z,969.17
2022-09-02T00:10:02.570Z,969.16
2022-09-02T00:11:02.518Z,969.15
2022-09-02T00:12:02.483Z,969.19
2022-09-02T00:13:02.421Z,969.16
2022-09-02T00:14:02.364Z,969.15
2022-09-02T00:15:02.317Z,969.09
2022-09-02T00:16:02.298Z,969.10
2022-09-02T00:17:02.279Z,969.13
2022-09-02T00:18:02.179Z,969.12
2022-09-02T00:19:02.109Z,969.11
2022-09-02T00:20:02.077Z,969.15
2022-09-02T00:21:02.007Z,969.09
2022-09-02T00:22:01.962Z,969.10
2022-09-02T00:23:01.926Z,969.16
2022-09-02T00:24:01.860Z,969.16
2022-09-02T00:25:01.806Z,969.10
2022-09-02T00:26:01.756Z,969.10
2022-09-02T00:27:01.709Z,969.07
2022-09-02T00:28:01.666Z,969.11
2022-09-02T00:29:01.603Z,969.06
2022-09-02T00:30:01.558Z,969.06
2022-09-02T00:31:01.499Z,969.06
2022-09-02T00:32:01.523Z,969.06
2022-09-02T00:33:01.916Z,969.08
2022-09-02T00:34:01.346Z,969.07
2022-09-02T00:35:01.294Z,969.04
2022-09-02T00:36:01.247Z,969.06
2022-09-02T00:37:01.193Z,969.06
2022-09-02T00:38:01.142Z,969.02
2022-09-02T00:39:01.108Z,969.01
2022-09-02T00:40:01.105Z,968.99
2022-09-02T00:41:00.987Z,968.97
2022-09-02T00:42:00.937Z,968.95
2022-09-02T00:43:00.888Z,969.05
2022-09-02T00:44:00.852Z,969.00
2022-09-02T00:45:00.788Z,969.01
2022-09-02T00:46:00.781Z,969.05
2022-09-02T00:47:00.697Z,969.02
2022-09-02T00:48:00.632Z,968.95
2022-09-02T00:49:00.594Z,968.94
2022-09-02T00:50:00.530Z,968.96
2022-09-02T00:51:00.478Z,968.93
2022-09-02T00:52:00.440Z,968.96
2022-09-02T00:53:00.376Z,968.96
2022-09-02T00:54:00.333Z,968.94
2022-09-02T00:55:00.272Z,968.91
2022-09-02T00:56:00.222Z,968.93
2022-09-02T00:57:00.185Z,968.91
2022-09-02T00:58:00.119Z,968.89
2022-09-02T00:59:00.076Z,968.88
2022-09-02T01:00:00.018Z,968.87
2022-09-02T01:01:00.027Z,968.82
2022-09-02T01:02:00.131Z,968.82
2022-09-02T01:02:59.880Z,968.85
2022-09-02T01:03:59.829Z,968.81
2022-09-02T01:04:59.777Z,968.90
2022-09-02T01:05:59.711Z,968.83
2022-09-02T01:06:59.660Z,968.86
2022-09-02T01:07:59.610Z,968.84
2022-09-02T01:08:59.559Z,968.81
2022-09-02T01:09:59.521Z,968.83
2022-09-02T01:10:59.457Z,968.80
2022-09-02T01:11:59.403Z,968.89
2022-09-02T01:12:59.372Z,968.76
2022-09-02T01:13:59.302Z,968.75
2022-09-02T01:14:59.250Z,968.79
2022-09-02T01:15:59.243Z,968.78
2022-09-02T01:16:59.152Z,968.80
2022-09-02T01:17:59.111Z,968.79
2022-09-02T01:18:59.062Z,968.78
2022-09-02T01:19:58.996Z,968.79
2022-09-02T01:20:58.945Z,968.77
2022-09-02T01:21:58.907Z,968.84
2022-09-02T01:22:58.842Z,968.84
2022-09-02T01:23:58.788Z,968.80
2022-09-02T01:24:58.749Z,968.74
2022-09-02T01:25:58.703Z,968.78
2022-09-02T01:26:58.645Z,968.76
2022-09-02T01:27:58.585Z,968.77
2022-09-02T01:28:58.538Z,968.81
2022-09-02T01:29:58.500Z,968.79
2022-09-02T01:30:58.445Z,968.82
2022-09-02T01:31:58.434Z,968.81
2022-09-02T01:32:58.336Z,968.79
2022-09-02T01:33:58.280Z,968.74
2022-09-02T01:34:58.249Z,968.73
2022-09-02T01:35:58.192Z,968.73
2022-09-02T01:36:58.125Z,968.78
2022-09-02T01:37:58.072Z,968.74
2022-09-02T01:38:58.022Z,968.78
2022-09-02T01:39:57.972Z,968.73
2022-09-02T01:40:57.933Z,968.80
2022-09-02T01:41:57.870Z,968.74
2022-09-02T01:42:57.817Z,968.82
2022-09-02T01:43:57.767Z,968.75
2022-09-02T01:44:57.715Z,968.73
2022-09-02T01:45:57.681Z,968.76
2022-09-02T01:46:57.710Z,968.74
2022-09-02T01:47:57.560Z,968.76
2022-09-02T01:48:57.512Z,968.77
2022-09-02T01:49:57.459Z,968.75
2022-09-02T01:50:57.408Z,968.67
2022-09-02T01:51:57.365Z,968.72
2022-09-02T01:52:57.320Z,968.69
2022-09-02T01:53:57.256Z,968.68
2022-09-02T01:54:57.208Z,968.64
2022-09-02T01:55:57.150Z,968.66
2022-09-02T01:56:57.116Z,968.66
2022-09-02T01:57:57.938Z,968.70
2022-09-02T01:58:57.015Z,968.68
2022-09-02T01:59:56.945Z,968.64
2022-09-02T02:00:56.948Z,968.68
2022-09-02T02:01:56.892Z,968.61
2022-09-02T02:02:56.797Z,968.63
2022-09-02T02:03:56.742Z,968.64
2022-09-02T02:04:56.690Z,968.62
2022-09-02T02:05:56.654Z,968.63
2022-09-02T02:06:56.591Z,968.58
2022-09-02T02:07:56.536Z,968.59
2022-09-02T02:08:56.485Z,968.57
2022-09-02T02:09:56.451Z,968.61
2022-09-02T02:10:56.387Z,968.58
2022-09-02T02:11:56.343Z,968.55
2022-09-02T02:12:56.283Z,968.58
2022-09-02T02:13:56.230Z,968.57
2022-09-02T02:14:56.179Z,968.58
2022-09-02T02:15:56.169Z,968.53
2022-09-02T02:16:56.086Z,968.50
2022-09-02T02:17:56.025Z,968.55
2022-09-02T02:18:55.973Z,968.56
2022-09-02T02:19:55.937Z,968.54
2022-09-02T02:20:55.870Z,968.56
2022-09-02T02:21:55.834Z,968.52
2022-09-02T02:22:55.785Z,968.58
2022-09-02T02:23:55.715Z,968.51
2022-09-02T02:24:55.668Z,968.52
2022-09-02T02:25:55.620Z,968.51
2022-09-02T02:26:55.563Z,968.57
2022-09-02T02:27:55.531Z,968.49
2022-09-02T02:28:55.487Z,968.53
2022-09-02T02:29:55.411Z,968.54
2022-09-02T02:30:55.393Z,968.51
2022-09-02T02:31:55.309Z,968.56
2022-09-02T02:32:55.271Z,968.51
2022-09-02T02:33:55.224Z,968.54
2022-09-02T02:34:55.155Z,968.58
2022-09-02T02:35:55.509Z,968.55
2022-09-02T02:36:55.050Z,968.54
2022-09-02T02:37:55.001Z,968.55
2022-09-02T02:38:54.951Z,968.52
2022-09-02T02:39:54.897Z,968.51
2022-09-02T02:40:54.907Z,968.53
2022-09-02T02:41:54.795Z,968.49
2022-09-02T02:42:54.743Z,968.54
2022-09-02T02:43:54.706Z,968.49
2022-09-02T02:44:54.640Z,968.51
2022-09-02T02:45:54.590Z,968.48
2022-09-02T02:46:54.587Z,968.49
2022-09-02T02:47:54.484Z,968.50
2022-09-02T02:48:54.455Z,968.47
2022-09-02T02:49:54.394Z,968.46
2022-09-02T02:50:54.336Z,968.53
2022-09-02T02:51:54.280Z,968.51
2022-09-02T02:52:54.234Z,968.50
2022-09-02T02:53:58.601Z,968.54
2022-09-02T02:54:54.146Z,968.52
2022-09-02T02:55:54.074Z,968.46
2022-09-02T02:56:54.024Z,968.42
2022-09-02T02:57:53.970Z,968.48
2022-09-02T02:58:53.922Z,968.46
2022-09-02T02:59:53.889Z,968.47
2022-09-02T03:00:53.821Z,968.45
2022-09-02T03:01:53.845Z,968.44
2022-09-02T03:02:53.833Z,968.45
2022-09-02T03:03:53.664Z,968.45
2022-09-02T03:04:53.617Z,968.42
2022-09-02T03:05:53.578Z,968.46
2022-09-02T03:06:53.510Z,968.43
2022-09-02T03:07:53.457Z,968.41
2022-09-02T03:08:53.408Z,968.42
2022-09-02T03:09:53.369Z,968.40
2022-09-02T03:10:53.303Z,968.39
2022-09-02T03:11:53.250Z,968.40
2022-09-02T03:12:53.203Z,968.37
2022-09-02T03:13:53.164Z,968.36
2022-09-02T03:14:53.130Z,968.39
2022-09-02T03:15:53.100Z,968.35
2022-09-02T03:16:53.028Z,968.39
2022-09-02T03:17:52.944Z,968.42
2022-09-02T03:18:52.894Z,968.40
2022-09-02T03:19:52.841Z,968.38
2022-09-02T03:20:52.806Z,968.40
2022-09-02T03:21:52.738Z,968.40
2022-09-02T03:22:52.686Z,968.38
2022-09-02T03:23:52.635Z,968.38
2022-09-02T03:24:52.585Z,968.37
2022-09-02T03:25:52.547Z,968.36
2022-09-02T03:26:52.480Z,968.33
2022-09-02T03:27:52.430Z,968.37
2022-09-02T03:28:52.379Z,968.36
2022-09-02T03:29:52.325Z,968.36
2022-09-02T03:30:52.349Z,968.35
2022-09-02T03:31:52.223Z,968.39
2022-09-02T03:32:52.170Z,968.40
2022-09-02T03:33:52.118Z,968.33
2022-09-02T03:34:52.068Z,968.37
2022-09-02T03:35:52.033Z,968.38
2022-09-02T03:36:51.980Z,968.37
2022-09-02T03:37:51.916Z,968.38
2022-09-02T03:38:51.869Z,968.38
2022-09-02T03:39:51.807Z,968.31
2022-09-02T03:40:51.837Z,968.34
2022-09-02T03:41:51.708Z,968.32
2022-09-02T03:42:51.685Z,968.35
2022-09-02T03:43:51.619Z,968.39
2022-09-02T03:44:51.567Z,968.30
2022-09-02T03:45:51.524Z,968.34
2022-09-02T03:46:51.450Z,968.33
2022-09-02T03:47:51.396Z,968.29
2022-09-02T03:48:51.343Z,968.29
2022-09-02T03:49:51.305Z,968.26
2022-09-02T03:50:51.248Z,968.30
2022-09-02T03:51:51.204Z,968.27
2022-09-02T03:52:51.141Z,968.25
2022-09-02T03:53:51.086Z,968.28
2022-09-02T03:54:51.034Z,968.30
2022-09-02T03:55:51.025Z,968.26
2022-09-02T03:56:50.945Z,968.29
2022-09-02T03:57:50.878Z,968.25
2022-09-02T03:58:50.843Z,968.22
2022-09-02T03:59:50.776Z,968.24
2022-09-02T04:00:50.724Z,968.23
2022-09-02T04:01:50.713Z,968.19
2022-09-02T04:02:50.696Z,968.22
2022-09-02T04:03:50.574Z,968.18
2022-09-02T04:04:50.518Z,968.20
2022-09-02T04:05:50.478Z,968.22
2022-09-02T04:06:50.414Z,968.21
2022-09-02T04:07:50.364Z,968.20
2022-09-02T04:08:50.308Z,968.22
2022-09-02T04:09:50.273Z,968.26
2022-09-02T04:10:50.206Z,968.24
2022-09-02T04:11:50.158Z,968.26
2022-09-02T04:12:50.104Z,968.19
2022-09-02T04:13:50.051Z,968.16
2022-09-02T04:14:50.342Z,968.19
2022-09-02T04:15:49.997Z,968.17
2022-09-02T04:16:49.912Z,968.19
2022-09-02T04:17:49.841Z,968.18
2022-09-02T04:18:49.793Z,968.18
2022-09-02T04:19:49.753Z,968.21
2022-09-02T04:20:49.685Z,968.25
2022-09-02T04:21:49.634Z,968.21
2022-09-02T04:22:49.583Z,968.25
2022-09-02T04:23:49.529Z,968.23
2022-09-02T04:24:49.499Z,968.24
2022-09-02T04:25:49.433Z,968.24
2022-09-02T04:26:49.379Z,968.25
2022-09-02T04:27:49.322Z,968.24
2022-09-02T04:28:49.271Z,968.26
2022-09-02T04:29:49.243Z,968.25
2022-09-02T04:30:49.261Z,968.27
2022-09-02T04:31:49.116Z,968.29
2022-09-02T04:32:49.068Z,968.28
2022-09-02T04:33:49.024Z,968.26
2022-09-02T04:34:49.868Z,968.28
2022-09-02T04:35:48.909Z,968.28
2022-09-02T04:36:48.862Z,968.28
2022-09-02T04:37:48.825Z,968.26
2022-09-02T04:38:48.755Z,968.29
2022-09-02T04:39:48.727Z,968.28
2022-09-02T04:40:48.740Z,968.26
2022-09-02T04:41:48.603Z,968.26
2022-09-02T04:42:48.550Z,968.27
2022-09-02T04:43:48.514Z,968.28
2022-09-02T04:44:48.445Z,968.25
2022-09-02T04:45:48.433Z,968.27
2022-09-02T04:46:48.369Z,968.26
2022-09-02T04:47:48.295Z,968.25
2022-09-02T04:48:48.242Z,968.24
2022-09-02T04:49:48.202Z,968.26
2022-09-02T04:50:48.136Z,968.23
2022-09-02T04:51:48.082Z,968.26
2022-09-02T04:52:48.031Z,968.27
2022-09-02T04:53:47.982Z,968.27
2022-09-02T04:54:47.953Z,968.27
2022-09-02T04:55:47.881Z,968.27
2022-09-02T04:56:47.834Z,968.28
2022-09-02T04:57:47.775Z,968.33
2022-09-02T04:58:47.736Z,968.30
2022-09-02T04:59:47.671Z,968.30
2022-09-02T05:00:47.634Z,968.34
2022-09-02T05:01:47.696Z,968.34
2022-09-02T05:02:47.594Z,968.28
2022-09-02T05:03:47.466Z,968.32
2022-09-02T05:04:47.430Z,968.34
2022-09-02T05:05:47.411Z,968.34
2022-09-02T05:06:47.306Z,968.34
2022-09-02T05:07:47.255Z,968.33
2022-09-02T05:08:47.206Z,968.31
2022-09-02T05:09:47.155Z,968.29
2022-09-02T05:10:47.118Z,968.34
2022-09-02T05:11:47.055Z,968.34
2022-09-02T05:12:47.016Z,968.32
2022-09-02T05:13:46.949Z,968.35
2022-09-02T05:14:46.896Z,968.37
2022-09-02T05:15:46.881Z,968.37
2022-09-02T05:16:46.790Z,968.37
2022-09-02T05:17:46.757Z,968.42
2022-09-02T05:18:46.693Z,968.38
2022-09-02T05:19:46.635Z,968.42
2022-09-02T05:20:46.602Z,968.38
2022-09-02T05:21:46.535Z,968.42
2022-09-02T05:22:46.478Z,968.42
2022-09-02T05:23:46.428Z,968.39
2022-09-02T05:24:46.386Z,968.44
2022-09-02T05:25:46.943Z,968.42
2022-09-02T05:26:46.290Z,968.46
2022-09-02T05:27:46.225Z,968.46
2022-09-02T05:28:46.175Z,968.47
2022-09-02T05:29:46.128Z,968.48
2022-09-02T05:30:46.114Z,968.48
2022-09-02T05:31:46.027Z,968.51
2022-09-02T05:32:45.963Z,968.47
2022-09-02T05:33:45.911Z,968.51
2022-09-02T05:34:45.868Z,968.50
2022-09-02T05:35:46.079Z,968.50
2022-09-02T05:36:45.753Z,968.46
2022-09-02T05:37:45.704Z,968.52
2022-09-02T05:38:45.653Z,968.54
2022-09-02T05:39:45.600Z,968.49
2022-09-02T05:40:45.580Z,968.48
2022-09-02T05:41:45.510Z,968.47
2022-09-02T05:42:45.443Z,968.48
2022-09-02T05:43:45.393Z,968.49
2022-09-02T05:44:45.357Z,968.49
2022-09-02T05:45:45.311Z,968.50
2022-09-02T05:46:48.712Z,968.46
2022-09-02T05:47:45.201Z,968.47
2022-09-02T05:48:45.129Z,968.47
2022-09-02T05:49:45.093Z,968.48
2022-09-02T05:50:45.026Z,968.47
2022-09-02T05:51:44.997Z,968.46
2022-09-02T05:52:44.925Z,968.50
2022-09-02T05:53:44.892Z,968.47
2022-09-02T05:54:44.820Z,968.49
2022-09-02T05:55:44.764Z,968.50
2022-09-02T05:56:44.934Z,968.52
2022-09-02T05:57:44.667Z,968.47
2022-09-02T05:58:44.613Z,968.45
2022-09-02T05:59:44.581Z,968.46
2022-09-02T06:00:44.506Z,968.41
2022-09-02T06:01:44.488Z,968.43
2022-09-02T06:02:44.448Z,968.42
2022-09-02T06:03:44.351Z,968.42
2022-09-02T06:04:44.311Z,968.41
2022-09-02T06:05:44.253Z,968.40
2022-09-02T06:06:44.195Z,968.39
2022-09-02T06:07:44.139Z,968.40
2022-09-02T06:08:44.095Z,968.42
2022-09-02T06:09:44.056Z,968.44
2022-09-02T06:10:44.008Z,968.43
2022-09-02T06:11:43.949Z,968.41
2022-09-02T06:12:43.882Z,968.43
2022-09-02T06:13:43.830Z,968.42
2022-09-02T06:14:43.799Z,968.46
2022-09-02T06:15:43.764Z,968.44
2022-09-02T06:16:43.676Z,968.43
2022-09-02T06:17:43.635Z,968.44
2022-09-02T06:18:43.589Z,968.45
2022-09-02T06:19:43.528Z,968.46
2022-09-02T06:20:43.484Z,968.48
2022-09-02T06:21:43.436Z,968.48
2022-09-02T06:22:43.368Z,968.48
2022-09-02T06:23:44.016Z,968.48
2022-09-02T06:24:43.264Z,968.46
2022-09-02T06:25:43.226Z,968.47
2022-09-02T06:26:43.160Z,968.49
2022-09-02T06:27:43.123Z,968.47
2022-09-02T06:28:43.058Z,968.46
2022-09-02T06:29:43.005Z,968.44
2022-09-02T06:30:42.979Z,968.47
2022-09-02T06:31:42.904Z,968.48
2022-09-02T06:32:42.867Z,968.46
2022-09-02T06:33:42.798Z,968.44
2022-09-02T06:34:42.754Z,968.45
2022-09-02T06:35:42.704Z,968.44
2022-09-02T06:36:42.642Z,968.48
2022-09-02T06:37:42.609Z,968.44
2022-09-02T06:38:45.720Z,968.44
2022-09-02T06:39:42.490Z,968.44
2022-09-02T06:40:42.469Z,968.43
2022-09-02T06:41:42.385Z,968.45
2022-09-02T06:42:42.351Z,968.44
2022-09-02T06:43:43.047Z,968.42
2022-09-02T06:44:42.234Z,968.42
2022-09-02T06:45:42.230Z,968.47
2022-09-02T06:46:42.153Z,968.45
2022-09-02T06:47:42.084Z,968.45
2022-09-02T06:48:42.037Z,968.45
2022-09-02T06:49:41.984Z,968.48
2022-09-02T06:50:42.048Z,968.49
2022-09-02T06:51:41.883Z,968.48
2022-09-02T06:52:41.849Z,968.46
2022-09-02T06:53:41.771Z,968.45
2022-09-02T06:54:41.721Z,968.45
2022-09-02T06:55:41.691Z,968.46
2022-09-02T06:56:43.921Z,968.46
2022-09-02T06:57:41.579Z,968.50
2022-09-02T06:58:41.516Z,968.51
2022-09-02T06:59:41.468Z,968.50
2022-09-02T07:00:41.431Z,968.53
2022-09-02T07:01:41.566Z,968.51
2022-09-02T07:02:41.314Z,968.48
2022-09-02T07:03:41.260Z,968.48
2022-09-02T07:04:41.210Z,968.50
2022-09-02T07:05:41.180Z,968.53
2022-09-02T07:06:41.114Z,968.47
2022-09-02T07:07:41.078Z,968.52
2022-09-02T07:08:41.012Z,968.56
2022-09-02T07:09:40.959Z,968.55
2022-09-02T07:10:40.923Z,968.56
2022-09-02T07:11:40.855Z,968.54
2022-09-02T07:12:40.812Z,968.50
2022-09-02T07:13:40.756Z,968.55
2022-09-02T07:14:40.722Z,968.53
2022-09-02T07:15:40.684Z,968.54
2022-09-02T07:16:40.629Z,968.52
2022-09-02T07:17:40.576Z,968.53
2022-09-02T07:18:40.517Z,968.56
2022-09-02T07:19:40.452Z,968.54
2022-09-02T07:20:40.401Z,968.50
2022-09-02T07:21:40.352Z,968.55
2022-09-02T07:22:40.332Z,968.56
2022-09-02T07:23:41.171Z,968.56
2022-09-02T07:24:40.210Z,968.58
2022-09-02T07:25:40.154Z,968.56
2022-09-02T07:26:40.107Z,968.51
2022-09-02T07:27:40.086Z,968.51
2022-09-02T07:28:40.000Z,968.50
2022-09-02T07:29:39.953Z,968.49
2022-09-02T07:30:39.952Z,968.50
2022-09-02T07:31:39.856Z,968.46
2022-09-02T07:32:40.478Z,968.50
2022-09-02T07:33:39.768Z,968.48
2022-09-02T07:34:39.778Z,968.47
2022-09-02T07:35:39.676Z,968.48
2022-09-02T07:36:39.608Z,968.47
2022-09-02T07:37:39.560Z,968.51
2022-09-02T07:38:39.504Z,968.45
2022-09-02T07:39:39.526Z,968.45
2022-09-02T07:40:39.449Z,968.48
2022-09-02T07:41:39.357Z,968.44
2022-09-02T07:42:39.308Z,968.44
2022-09-02T07:43:39.272Z,968.46
2022-09-02T07:44:39.208Z,968.46
2022-09-02T07:45:39.179Z,968.47
2022-09-02T07:46:39.108Z,968.46
2022-09-02T07:47:39.058Z,968.47
2022-09-02T07:48:39.024Z,968.44
2022-09-02T07:50:38.911Z,968.48
2022-09-02T07:51:38.861Z,968.41
2022-09-02T07:52:38.811Z,968.48
2022-09-02T07:53:38.765Z,968.51
2022-09-02T07:54:38.729Z,968.47
2022-09-02T07:55:38.662Z,968.45
2022-09-02T07:56:38.615Z,968.51
2022-09-02T07:57:38.583Z,968.50
2022-09-02T07:58:38.522Z,968.45
2022-09-02T07:59:38.487Z,968.48
2022-09-02T08:00:38.416Z,968.46
2022-09-02T08:01:38.471Z,968.45
2022-09-02T08:02:38.466Z,968.42
2022-09-02T08:03:38.283Z,968.49
2022-09-02T08:04:38.220Z,968.49
2022-09-02T08:05:38.168Z,968.46
2022-09-02T08:06:38.122Z,968.43
2022-09-02T08:07:38.085Z,968.38
2022-09-02T08:08:38.022Z,968.44
2022-09-02T08:09:38.038Z,968.41
2022-09-02T08:10:37.945Z,968.41
2022-09-02T08:11:37.891Z,968.45
2022-09-02T08:12:37.825Z,968.49
2022-09-02T08:13:37.774Z,968.48
2022-09-02T08:14:37.762Z,968.46
2022-09-02T08:15:37.721Z,968.46
2022-09-02T08:16:37.733Z,968.50
2022-09-02T08:17:37.593Z,968.49
2022-09-02T08:18:37.533Z,968.53
2022-09-02T08:19:37.509Z,968.53
2022-09-02T08:20:37.474Z,968.58
2022-09-02T08:21:37.403Z,968.57
2022-09-02T08:22:37.345Z,968.60
2022-09-02T08:23:37.952Z,968.65
2022-09-02T08:24:37.250Z,968.59
2022-09-02T08:25:37.223Z,968.62
2022-09-02T08:26:37.191Z,968.63
2022-09-02T08:27:37.112Z,968.67
2022-09-02T08:28:37.080Z,968.69
2022-09-02T08:29:37.019Z,968.67
2022-09-02T08:30:36.973Z,968.67
2022-09-02T08:31:36.986Z,968.62
2022-09-02T08:32:36.883Z,968.64
2022-09-02T08:33:45.612Z,968.67
2022-09-02T08:34:36.826Z,968.62
2022-09-02T08:35:36.783Z,968.62
2022-09-02T08:36:36.743Z,968.67
2022-09-02T08:37:36.689Z,968.60
2022-09-02T08:38:36.679Z,968.58
2022-09-02T08:39:36.597Z,968.60
2022-09-02T08:40:36.628Z,968.59
2022-09-02T08:41:36.543Z,968.61
2022-09-02T08:42:36.491Z,968.64
2022-09-02T08:43:36.413Z,968.62
2022-09-02T08:44:36.386Z,968.64
2022-09-02T08:45:36.378Z,968.61
2022-09-02T08:46:36.299Z,968.63
2022-09-02T08:47:36.274Z,968.63
2022-09-02T08:48:36.196Z,968.57
2022-09-02T08:49:36.161Z,968.59
2022-09-02T08:50:36.104Z,968.59
2022-09-02T08:51:37.201Z,968.58
2022-09-02T08:52:36.095Z,968.61
2022-09-02T08:53:36.020Z,968.64
2022-09-02T08:54:35.966Z,968.59
2022-09-02T08:55:35.921Z,968.62
2022-09-02T08:56:35.874Z,968.60
2022-09-02T08:57:35.803Z,968.58
2022-09-02T08:58:35.767Z,968.61
2022-09-02T08:59:35.755Z,968.60
2022-09-02T09:00:35.662Z,968.57
2022-09-02T09:01:35.682Z,968.56
2022-09-02T09:02:35.732Z,968.56
2022-09-02T09:03:35.592Z,968.52
2022-09-02T09:04:35.507Z,968.65
2022-09-02T09:05:35.450Z,968.60
2022-09-02T09:06:35.416Z,968.56
2022-09-02T09:08:35.355Z,968.55
2022-09-02T09:09:35.285Z,968.62
2022-09-02T09:10:35.231Z,968.64
2022-09-02T09:11:35.220Z,968.67
2022-09-02T09:12:35.184Z,968.59
2022-09-02T09:13:39.409Z,968.54
2022-09-02T09:14:35.070Z,968.53
2022-09-02T09:15:35.017Z,968.50
2022-09-02T09:16:35.024Z,968.51
2022-09-02T09:17:34.931Z,968.47
2022-09-02T09:18:34.897Z,968.46
2022-09-02T09:19:34.822Z,968.51
2022-09-02T09:20:34.814Z,968.46
2022-09-02T09:21:34.745Z,968.52
2022-09-02T09:22:34.704Z,968.51
2022-09-02T09:23:34.892Z,968.59
2022-09-02T09:24:34.617Z,968.52
2022-09-02T09:25:34.610Z,968.46
2022-09-02T09:26:34.534Z,968.47
2022-09-02T09:27:34.486Z,968.43
2022-09-02T09:28:34.437Z,968.46
2022-09-02T09:29:34.386Z,968.52
2022-09-02T09:30:34.342Z,968.49
2022-09-02T09:31:34.375Z,968.49
2022-09-02T09:32:34.268Z,968.47
2022-09-02T09:33:34.232Z,968.44
2022-09-02T09:34:34.170Z,968.42
2022-09-02T09:35:34.100Z,968.41
2022-09-02T09:36:34.110Z,968.43
2022-09-02T09:37:36.359Z,968.41
2022-09-02T09:38:33.988Z,968.41
2022-09-02T09:39:33.932Z,968.43
2022-09-02T09:40:33.945Z,968.35
2022-09-02T09:41:33.854Z,968.33
2022-09-02T09:42:33.801Z,968.25
2022-09-02T09:43:33.757Z,968.22
2022-09-02T09:44:33.738Z,968.26
2022-09-02T09:45:33.754Z,968.30
2022-09-02T09:46:33.667Z,968.27
2022-09-02T09:47:33.632Z,968.19
2022-09-02T09:48:33.584Z,968.22
2022-09-02T09:49:33.506Z,968.27
2022-09-02T09:50:33.481Z,968.20
2022-09-02T09:51:49.984Z,968.24
2022-09-02T09:52:33.374Z,968.23
2022-09-02T09:53:33.565Z,968.26
2022-09-02T09:54:33.292Z,968.24
2022-09-02T09:55:34.940Z,968.26
2022-09-02T09:56:37.291Z,968.27
2022-09-02T09:57:35.844Z,968.15
2022-09-02T09:58:33.135Z,968.13
2022-09-02T09:59:33.068Z,968.17
2022-09-02T10:00:33.171Z,968.19
2022-09-02T10:01:32.995Z,968.27
2022-09-02T10:02:36.296Z,968.25
2022-09-02T10:03:33.144Z,968.27
2022-09-02T10:04:42.793Z,968.31
2022-09-02T10:05:32.840Z,968.15
2022-09-02T10:06:32.771Z,968.18
2022-09-02T10:07:32.773Z,968.07
2022-09-02T10:08:32.691Z,968.08
2022-09-02T10:09:32.625Z,968.05
2022-09-02T10:10:32.591Z,968.08
2022-09-02T10:11:32.575Z,968.07
2022-09-02T10:12:32.542Z,968.04
2022-09-02T10:13:32.472Z,968.02
2022-09-02T10:14:32.424Z,968.03
2022-09-02T10:15:32.402Z,967.97
2022-09-02T10:16:32.383Z,968.01
2022-09-02T10:17:32.327Z,968.00
2022-09-02T10:18:32.255Z,967.95
2022-09-02T10:19:32.224Z,967.94
2022-09-02T10:20:32.205Z,967.95
2022-09-02T10:21:32.115Z,967.98
2022-09-02T10:22:37.800Z,967.95
2022-09-02T10:23:32.048Z,967.97
2022-09-02T10:24:31.996Z,967.96
2022-09-02T10:25:31.987Z,967.92
2022-09-02T10:26:31.969Z,967.95
2022-09-02T10:27:31.875Z,967.92
2022-09-02T10:28:31.861Z,967.96
2022-09-02T10:29:31.779Z,968.04
2022-09-02T10:30:31.754Z,967.97
2022-09-02T10:31:31.803Z,967.94
2022-09-02T10:32:31.652Z,967.90
2022-09-02T10:33:31.619Z,967.98
2022-09-02T10:34:31.577Z,967.90
2022-09-02T10:35:31.552Z,967.94
2022-09-02T10:36:31.518Z,967.96
2022-09-02T10:37:31.448Z,967.98
2022-09-02T10:38:31.398Z,967.97
2022-09-02T10:39:31.388Z,967.98
2022-09-02T10:40:31.353Z,967.99
2022-09-02T10:41:31.335Z,968.01
2022-09-02T10:42:31.227Z,967.82
2022-09-02T10:43:31.206Z,967.88
2022-09-02T10:44:31.150Z,967.85
2022-09-02T10:45:31.112Z,967.82
2022-09-02T10:46:31.100Z,967.87
2022-09-02T10:47:32.013Z,967.81
2022-09-02T10:48:30.994Z,967.81
2022-09-02T10:49:30.948Z,967.84
2022-09-02T10:50:30.893Z,967.82
2022-09-02T10:51:30.849Z,967.77
2022-09-02T10:52:30.821Z,967.77
2022-09-02T10:53:30.750Z,967.73
2022-09-02T10:54:30.706Z,967.75
2022-09-02T10:55:30.669Z,967.77
2022-09-02T10:56:30.667Z,967.78
2022-09-02T10:57:30.582Z,967.75
2022-09-02T10:58:30.521Z,967.78
2022-09-02T10:59:30.494Z,967.76
2022-09-02T11:00:30.501Z,967.77
2022-09-02T11:01:30.403Z,967.82
2022-09-02T11:02:30.373Z,967.82
2022-09-02T11:03:30.440Z,967.85
2022-09-02T11:04:30.303Z,967.76
2022-09-02T11:05:30.239Z,967.66
2022-09-02T11:06:40.348Z,967.57
2022-09-02T11:07:30.175Z,967.66
2022-09-02T11:08:31.717Z,967.67
2022-09-02T11:09:30.334Z,967.76
2022-09-02T11:10:30.030Z,967.68
2022-09-02T11:11:30.001Z,967.67
2022-09-02T11:12:29.937Z,967.66
2022-09-02T11:13:30.052Z,967.57
2022-09-02T11:14:29.837Z,967.63
2022-09-02T11:15:29.830Z,967.62
2022-09-02T11:16:29.914Z,967.63
2022-09-02T11:17:29.696Z,967.63
2022-09-02T11:18:29.684Z,967.60
2022-09-02T11:19:29.651Z,967.60
2022-09-02T11:20:29.606Z,967.57
2022-09-02T11:21:31.784Z,967.59
2022-09-02T11:22:29.517Z,967.58
2022-09-02T11:23:29.460Z,967.66
2022-09-02T11:24:29.409Z,967.61
2022-09-02T11:25:29.444Z,967.62
2022-09-02T11:26:29.316Z,967.57
2022-09-02T11:27:41.760Z,967.62
2022-09-02T11:28:29.259Z,967.55
2022-09-02T11:29:29.196Z,967.53
2022-09-02T11:30:29.188Z,967.55
2022-09-02T11:31:29.177Z,967.54
2022-09-02T11:32:29.085Z,967.59
2022-09-02T11:33:29.017Z,967.55
2022-09-02T11:34:28.977Z,967.57
2022-09-02T11:35:28.973Z,967.53
2022-09-02T11:36:30.939Z,967.52
2022-09-02T11:37:28.865Z,967.58
2022-09-02T11:38:28.799Z,967.52
2022-09-02T11:39:36.568Z,967.45
2022-09-02T11:40:34.823Z,967.50
2022-09-02T11:41:35.540Z,967.48
2022-09-02T11:42:28.647Z,967.50
2022-09-02T11:43:28.631Z,967.52
2022-09-02T11:44:30.881Z,967.45
2022-09-02T11:45:28.568Z,967.47
2022-09-02T11:46:28.558Z,967.55
2022-09-02T11:47:28.448Z,967.44
2022-09-02T11:48:28.430Z,967.45
2022-09-02T11:49:28.357Z,967.49
2022-09-02T11:50:28.325Z,967.50
2022-09-02T11:51:28.265Z,967.49
2022-09-02T11:52:28.254Z,967.36
2022-09-02T11:53:28.328Z,967.35
2022-09-02T11:54:28.177Z,967.31
2022-09-02T11:55:28.108Z,967.33
2022-09-02T11:56:28.062Z,967.34
2022-09-02T11:57:28.039Z,967.28
2022-09-02T11:58:28.007Z,967.26
2022-09-02T11:59:27.940Z,967.25
2022-09-02T12:00:27.907Z,967.25
2022-09-02T12:01:27.870Z,967.24
2022-09-02T12:02:27.815Z,967.24
2022-09-02T12:03:46.599Z,967.29
2022-09-02T12:04:58.880Z,967.28
2022-09-02T12:05:27.741Z,967.29
2022-09-02T12:06:27.742Z,967.26
2022-09-02T12:07:29.849Z,967.31
2022-09-02T12:08:27.528Z,967.28
2022-09-02T12:09:27.497Z,967.30
2022-09-02T12:10:27.465Z,967.21
2022-09-02T12:11:27.404Z,967.22
2022-09-02T12:12:27.422Z,967.29
2022-09-02T12:13:27.326Z,967.23
2022-09-02T12:14:27.290Z,967.18
2022-09-02T12:15:27.243Z,967.13
2022-09-02T12:16:27.221Z,967.15
2022-09-02T12:17:27.136Z,967.21
2022-09-02T12:18:27.153Z,967.16
2022-09-02T12:19:27.054Z,967.10
2022-09-02T12:20:27.026Z,967.16
2022-09-02T12:21:27.009Z,967.14
2022-09-02T12:22:26.938Z,967.06
2022-09-02T12:23:26.887Z,967.02
2022-09-02T12:24:26.829Z,967.09
2022-09-02T12:25:27.391Z,967.01
2022-09-02T12:26:26.788Z,966.98
2022-09-02T12:27:26.711Z,967.02
2022-09-02T12:28:26.992Z,967.10
2022-09-02T12:29:26.653Z,967.00